Time;durP1;ratioP1;P1;durP2;ratioP2;P2;SDS_P1;SDS_P2;PMS_P1;PMS_P2;Temp;Humidity;BMP_temperature;BMP_pressure;BME280_temperature;BME280_humidity;BME280_pressure;Samples;Min_cycle;Max_cycle;Signal;HPM_P1;HPM_P2
2023/02/25 00:02:17;;;;;;;16.20;2.45;;;;;;;8.37;67.68;99020.97;5066567;27;97561;-71
2023/02/25 00:04:43;;;;;;;23.58;3.35;;;;;;;8.48;67.01;99023.00;5067264;27;98937;-70
2023/02/25 00:07:11;;;;;;;15.02;2.15;;;;;;;8.14;67.09;99021.31;5069201;27;99597;-70
2023/02/25 00:09:37;;;;;;;27.80;3.30;;;;;;;8.11;68.46;99013.56;5071290;27;97659;-71
2023/02/25 00:12:04;;;;;;;13.88;2.53;;;;;;;8.36;67.92;99001.69;5069503;27;98684;-71
2023/02/25 00:14:30;;;;;;;21.60;3.05;;;;;;;8.26;67.14;99010.16;5068686;27;98870;-71
2023/02/25 00:16:57;;;;;;;13.15;2.38;;;;;;;8.38;67.19;99005.09;5067420;27;98672;-71
2023/02/25 00:19:24;;;;;;;23.45;2.97;;;;;;;8.29;68.10;99021.34;5069294;27;97697;-71
2023/02/25 00:21:50;;;;;;;19.58;2.88;;;;;;;8.42;67.93;99023.34;5066850;27;97773;-72
2023/02/25 00:24:18;;;;;;;16.67;2.80;;;;;;;8.52;68.03;99038.56;5068066;27;98912;-73
2023/02/25 00:26:45;;;;;;;15.10;2.03;;;;;;;8.58;65.90;99050.56;5070705;27;99501;-72
2023/02/25 00:29:11;;;;;;;8.98;1.20;;;;;;;7.97;66.18;99061.66;5070147;27;96772;-70
2023/02/25 00:31:38;;;;;;;5.72;0.85;;;;;;;7.38;67.93;99059.38;5069874;27;96946;-71
2023/02/25 00:34:04;;;;;;;6.40;1.13;;;;;;;7.56;67.87;99058.47;5069596;27;99243;-70
2023/02/25 00:36:31;;;;;;;3.13;0.77;;;;;;;6.62;69.21;99056.03;5068510;27;99245;-73
2023/02/25 00:38:57;;;;;;;3.97;0.90;;;;;;;6.28;70.78;99058.47;5070093;27;98865;-70
2023/02/25 00:41:27;;;;;;;1.92;0.70;;;;;;;6.39;70.20;99066.69;5068934;27;97474;-70
2023/02/25 00:43:56;;;;;;;3.17;0.73;;;;;;;6.37;70.43;99058.03;5065871;27;99660;-71
2023/02/25 00:46:23;;;;;;;7.38;0.95;;;;;;;6.42;70.30;99060.47;5071095;27;99209;-71
2023/02/25 00:48:50;;;;;;;8.18;1.45;;;;;;;6.49;69.87;99054.88;5068398;27;96789;-70
2023/02/25 00:51:19;;;;;;;3.65;0.68;;;;;;;6.73;69.10;99051.13;5069584;27;97325;-70
2023/02/25 00:53:45;;;;;;;2.53;0.80;;;;;;;6.70;69.42;99045.16;5065164;27;97850;-71
2023/02/25 00:56:14;;;;;;;2.28;0.70;;;;;;;6.54;70.07;99036.28;5069510;27;98976;-71
2023/02/25 00:58:44;;;;;;;4.43;0.82;;;;;;;6.30;70.97;99039.09;5064634;27;97078;-70
2023/02/25 01:01:17;;;;;;;5.80;0.95;;;;;;;6.80;68.99;99039.41;5069615;27;97443;-70
2023/02/25 01:03:44;;;;;;;4.45;1.20;;;;;;;6.93;69.14;99037.06;5064912;27;99318;-70
2023/02/25 01:06:10;;;;;;;4.47;1.02;;;;;;;7.06;68.67;99032.06;5070362;27;100093;-70
2023/02/25 01:08:37;;;;;;;4.18;0.80;;;;;;;7.25;68.40;99035.50;5068193;27;96914;-70
2023/02/25 01:11:11;;;;;;;6.32;1.00;;;;;;;7.31;68.00;99032.56;5063966;27;97063;-70
2023/02/25 01:13:37;;;;;;;4.93;1.13;;;;;;;7.27;67.36;99038.06;5062978;27;98936;-69
2023/02/25 01:16:12;;;;;;;3.53;1.02;;;;;;;6.79;69.58;99042.09;5063559;27;99374;-70
2023/02/25 01:18:39;;;;;;;4.47;0.98;;;;;;;7.12;68.69;99032.63;5067843;27;99346;-74
2023/02/25 01:21:05;;;;;;;6.53;1.17;;;;;;;7.10;68.97;99029.19;5065589;27;98443;-70
2023/02/25 01:23:32;;;;;;;6.45;1.25;;;;;;;6.96;70.19;99036.88;5069398;27;98912;-70
2023/02/25 01:25:58;;;;;;;11.57;1.55;;;;;;;6.99;70.47;99021.00;5067870;27;98808;-72
2023/02/25 01:28:27;;;;;;;3.45;1.20;;;;;;;6.98;70.51;99034.19;5068534;27;96830;-71
2023/02/25 01:30:53;;;;;;;8.10;1.60;;;;;;;6.66;71.06;99023.44;5070529;27;98896;-70
2023/02/25 01:33:21;;;;;;;9.68;1.65;;;;;;;6.87;71.39;99023.38;5069712;27;98872;-70
2023/02/25 01:35:47;;;;;;;8.15;1.55;;;;;;;7.33;69.62;99019.34;5066276;27;99443;-70
2023/02/25 01:38:14;;;;;;;6.88;1.30;;;;;;;7.37;68.82;99011.25;5068801;27;97664;-70
2023/02/25 01:40:40;;;;;;;7.80;1.70;;;;;;;7.30;69.52;99015.09;5066761;27;97391;-70
2023/02/25 01:43:13;;;;;;;12.50;1.70;;;;;;;7.55;68.84;99020.81;5070921;27;99034;-71
2023/02/25 01:45:43;;;;;;;9.70;1.63;;;;;;;7.34;69.21;99014.03;5060719;27;97690;-70
2023/02/25 01:48:15;;;;;;;6.68;1.50;;;;;;;7.44;68.50;99009.16;5068894;27;96994;-71
2023/02/25 01:50:49;;;;;;;8.10;1.63;;;;;;;6.99;69.91;99015.75;5065770;27;97607;-71
2023/02/25 01:53:20;;;;;;;5.25;1.73;;;;;;;7.09;70.76;99018.75;5068763;27;99240;-71
2023/02/25 01:55:47;;;;;;;8.68;1.58;;;;;;;7.14;70.29;99024.66;5065656;27;101135;-70
2023/02/25 01:58:15;;;;;;;10.63;1.98;;;;;;;6.96;70.87;99018.50;5068550;27;96968;-71
2023/02/25 02:00:41;;;;;;;7.72;2.00;;;;;;;6.78;71.96;99020.25;5065293;27;97091;-70
2023/02/25 02:03:14;;;;;;;8.00;1.60;;;;;;;6.60;72.86;99025.50;5066692;27;99103;-70
2023/02/25 02:05:52;;;;;;;7.78;1.50;;;;;;;6.65;72.09;99026.13;5069354;27;98646;-69
2023/02/25 02:08:19;;;;;;;5.88;1.45;;;;;;;6.64;72.09;99027.91;5069635;27;97442;-69
2023/02/25 02:10:45;;;;;;;5.20;1.98;;;;;;;6.98;71.64;99034.19;5065159;27;98458;-70
2023/02/25 02:13:12;;;;;;;7.70;1.75;;;;;;;7.11;71.02;99019.56;5065810;27;98859;-70
2023/02/25 02:15:44;;;;;;;6.63;1.67;;;;;;;7.44;69.45;99017.88;5066989;27;101142;-70
2023/02/25 02:18:12;;;;;;;4.20;1.25;;;;;;;7.36;68.40;99013.94;5069131;27;96832;-70
2023/02/25 02:20:52;;;;;;;5.88;1.45;;;;;;;7.40;68.02;99021.59;5068255;27;97858;-70
2023/02/25 02:23:40;;;;;;;5.32;1.30;;;;;;;7.66;67.12;99024.69;5068902;27;99169;-70
2023/02/25 02:26:35;;;;;;;4.78;1.33;;;;;;;7.67;66.45;99018.53;5068144;27;101637;-71
2023/02/25 02:29:28;;;;;;;4.53;1.17;;;;;;;7.47;67.30;99023.00;5066845;27;96920;-71
2023/02/25 02:32:06;;;;;;;8.13;1.10;;;;;;;7.76;66.26;99025.91;5064469;27;97204;-72
2023/02/25 02:34:41;;;;;;;4.65;1.08;;;;;;;7.81;65.92;99032.63;5064768;27;98890;-70
2023/02/25 02:37:23;;;;;;;3.08;0.95;;;;;;;7.56;65.36;99013.78;5070872;27;98889;-69
2023/02/25 02:39:58;;;;;;;0.80;0.80;;;;;;;7.50;66.27;99033.34;5071611;27;96826;-70
2023/02/25 02:42:31;;;;;;;3.25;1.23;;;;;;;7.93;64.77;99029.41;5071694;27;97097;-70
2023/02/25 02:45:04;;;;;;;2.42;0.98;;;;;;;7.74;65.39;99018.13;5068932;27;98842;-69
2023/02/25 02:47:35;;;;;;;0.95;0.75;;;;;;;7.30;66.38;99020.34;5070293;27;98586;-70
2023/02/25 02:50:05;;;;;;;2.97;0.90;;;;;;;7.57;66.04;99026.84;5071555;27;96815;-70
2023/02/25 02:52:37;;;;;;;2.08;0.85;;;;;;;7.32;66.49;99029.00;5074202;27;97047;-70
2023/02/25 02:55:07;;;;;;;1.50;0.93;;;;;;;7.40;66.19;99026.88;5073314;27;99248;-71
2023/02/25 02:57:37;;;;;;;1.15;0.80;;;;;;;7.37;67.10;99041.91;5075121;27;99094;-70
2023/02/25 03:00:16;;;;;;;3.13;1.35;;;;;;;7.72;65.72;99040.16;5078773;27;97179;-71
2023/02/25 03:02:46;;;;;;;3.40;1.00;;;;;;;7.38;66.78;99038.38;5069617;27;98469;-71
2023/02/25 03:05:16;;;;;;;1.73;0.57;;;;;;;6.99;67.63;99042.00;5068532;27;100105;-69
2023/02/25 03:07:49;;;;;;;3.10;0.93;;;;;;;7.64;66.88;99050.22;5076629;27;99123;-71
2023/02/25 03:10:20;;;;;;;3.42;1.05;;;;;;;7.65;66.61;99058.03;5070853;27;97200;-71
2023/02/25 03:12:46;;;;;;;1.27;0.90;;;;;;;7.56;66.83;99051.44;5070141;27;99525;-70
2023/02/25 03:15:13;;;;;;;1.70;0.80;;;;;;;7.67;66.19;99050.06;5070332;27;98866;-71
2023/02/25 03:17:46;;;;;;;1.05;0.90;;;;;;;7.85;65.67;99070.16;5069111;27;99465;-71
2023/02/25 03:20:18;;;;;;;1.10;0.90;;;;;;;7.81;65.55;99064.19;5074413;27;96707;-70
2023/02/25 03:22:47;;;;;;;1.25;0.55;;;;;;;7.95;64.73;99080.13;5068085;27;97613;-70
2023/02/25 03:25:18;;;;;;;1.17;0.70;;;;;;;7.82;64.77;99076.41;5071775;27;98867;-71
2023/02/25 03:27:47;;;;;;;3.55;0.80;;;;;;;7.15;66.90;99082.34;5072315;27;98566;-72
2023/02/25 03:30:19;;;;;;;0.80;0.70;;;;;;;7.03;68.10;99096.06;5072998;27;96884;-71
2023/02/25 03:32:52;;;;;;;2.50;0.70;;;;;;;7.11;68.00;99087.84;5072447;27;97037;-71
2023/02/25 03:35:21;;;;;;;2.10;0.80;;;;;;;7.39;66.77;99090.84;5068506;27;98862;-71
2023/02/25 03:37:50;;;;;;;1.63;0.80;;;;;;;7.32;66.97;99102.59;5071967;27;99370;-72
2023/02/25 03:40:19;;;;;;;1.20;0.80;;;;;;;7.09;67.61;99105.44;5069576;27;97590;-70
2023/02/25 03:42:51;;;;;;;0.75;0.57;;;;;;;7.33;67.80;99108.69;5074629;27;98029;-70
2023/02/25 03:45:19;;;;;;;3.35;0.80;;;;;;;7.10;67.49;99108.00;5064675;27;99232;-71
2023/02/25 03:47:47;;;;;;;1.15;0.47;;;;;;;7.12;67.37;99103.53;5073079;27;98938;-70
2023/02/25 03:50:18;;;;;;;2.10;0.60;;;;;;;7.52;66.43;99110.34;5069890;27;97766;-70
2023/02/25 03:52:45;;;;;;;2.55;0.55;;;;;;;7.36;66.52;99119.88;5071866;27;96638;-72
2023/02/25 03:55:16;;;;;;;0.82;0.45;;;;;;;7.82;65.29;99121.13;5067075;27;99591;-71
2023/02/25 03:57:44;;;;;;;1.60;0.50;;;;;;;7.63;65.28;99116.84;5069102;27;98957;-70
2023/02/25 04:00:17;;;;;;;0.80;0.60;;;;;;;7.79;64.42;99128.31;5069311;27;96804;-71
2023/02/25 04:02:45;;;;;;;0.75;0.52;;;;;;;7.74;64.68;99125.09;5072609;27;97608;-71
2023/02/25 04:05:15;;;;;;;0.63;0.50;;;;;;;7.63;64.30;99135.25;5052769;27;98856;-71
2023/02/25 04:07:41;;;;;;;0.50;0.50;;;;;;;6.98;66.87;99126.97;5063692;27;101082;-70
2023/02/25 04:10:11;;;;;;;0.55;0.40;;;;;;;7.12;66.99;99142.94;5071414;27;98289;-70
2023/02/25 04:12:38;;;;;;;0.95;0.40;;;;;;;7.51;65.62;99137.56;5068878;27;96896;-70
2023/02/25 04:15:05;;;;;;;1.52;0.50;;;;;;;7.69;64.22;99134.94;5067213;27;98487;-70
2023/02/25 04:17:32;;;;;;;1.52;0.65;;;;;;;7.19;65.85;99146.13;5066818;27;98679;-70
2023/02/25 04:19:58;;;;;;;1.25;0.40;;;;;;;7.57;64.96;99152.19;5071859;27;97009;-70
2023/02/25 04:22:27;;;;;;;2.65;1.13;;;;;;;7.73;64.41;99161.03;5070918;27;98564;-70
2023/02/25 04:24:53;;;;;;;1.10;0.47;;;;;;;7.24;65.53;99156.41;5065418;27;98879;-71
2023/02/25 04:27:19;;;;;;;0.85;0.40;;;;;;;7.02;67.11;99167.09;5068755;27;99324;-71
2023/02/25 04:29:46;;;;;;;0.98;0.40;;;;;;;7.17;67.11;99177.72;5071465;27;96719;-71
2023/02/25 04:32:12;;;;;;;1.27;0.52;;;;;;;7.35;66.01;99169.91;5072793;27;97113;-71
2023/02/25 04:34:39;;;;;;;0.30;0.30;;;;;;;7.37;65.79;99166.28;5070769;27;99066;-70
2023/02/25 04:37:05;;;;;;;0.35;0.30;;;;;;;7.22;67.12;99180.13;5063046;27;101168;-70
2023/02/25 04:39:33;;;;;;;0.55;0.50;;;;;;;6.98;67.65;99182.13;5065541;27;97160;-70
2023/02/25 04:41:59;;;;;;;0.40;0.40;;;;;;;7.26;66.91;99178.22;5067119;27;98333;-71
2023/02/25 04:44:26;;;;;;;1.23;0.50;;;;;;;6.91;67.36;99180.69;5068145;27;99312;-70
2023/02/25 04:46:52;;;;;;;0.50;0.40;;;;;;;7.19;66.70;99196.03;5068984;27;102044;-70
2023/02/25 04:49:20;;;;;;;1.38;0.40;;;;;;;7.07;67.19;99189.59;5071566;27;96910;-72
2023/02/25 04:51:48;;;;;;;0.30;0.20;;;;;;;7.37;66.49;99194.31;5070817;27;96719;-71
2023/02/25 04:54:17;;;;;;;0.50;0.40;;;;;;;7.10;67.49;99185.94;5067981;27;98817;-71
2023/02/25 04:56:45;;;;;;;0.65;0.30;;;;;;;7.44;65.84;99190.47;5070633;27;99334;-70
2023/02/25 04:59:11;;;;;;;0.50;0.47;;;;;;;7.10;66.81;99199.06;5066424;27;98160;-70
2023/02/25 05:01:38;;;;;;;0.60;0.60;;;;;;;7.24;67.00;99187.94;5065295;27;99060;-70
2023/02/25 05:04:04;;;;;;;1.85;0.38;;;;;;;7.78;64.79;99184.47;5067080;27;100418;-70
2023/02/25 05:06:31;;;;;;;0.93;0.40;;;;;;;7.66;64.61;99192.94;5071717;27;99075;-70
2023/02/25 05:08:58;;;;;;;3.35;0.47;;;;;;;7.18;65.76;99203.06;5067649;27;96894;-71
2023/02/25 05:11:26;;;;;;;1.23;0.93;;;;;;;7.23;66.01;99197.59;5066286;27;97699;-70
2023/02/25 05:13:56;;;;;;;1.42;0.50;;;;;;;7.57;64.88;99195.09;5063906;27;98980;-70
2023/02/25 05:16:22;;;;;;;0.50;0.40;;;;;;;7.22;65.58;99201.13;5069017;27;98682;-71
2023/02/25 05:18:49;;;;;;;2.25;0.52;;;;;;;6.95;66.47;99202.41;5070271;27;97322;-71
2023/02/25 05:21:18;;;;;;;0.55;0.40;;;;;;;6.64;67.17;99208.16;5070536;27;97307;-70
2023/02/25 05:23:46;;;;;;;3.13;0.40;;;;;;;6.82;67.26;99211.78;5070508;27;98754;-70
2023/02/25 05:26:13;;;;;;;0.82;0.40;;;;;;;7.00;66.77;99210.94;5070133;27;99191;-70
2023/02/25 05:28:39;;;;;;;0.35;0.32;;;;;;;7.43;65.01;99210.66;5068079;27;96741;-71
2023/02/25 05:31:08;;;;;;;1.27;0.70;;;;;;;7.69;63.74;99222.56;5065811;27;98788;-70
2023/02/25 05:33:36;;;;;;;0.80;0.35;;;;;;;7.92;62.26;99224.94;5066261;27;98874;-71
2023/02/25 05:36:05;;;;;;;0.40;0.30;;;;;;;7.98;61.98;99239.56;5063829;27;99371;-71
2023/02/25 05:38:32;;;;;;;0.95;0.30;;;;;;;7.26;64.52;99231.63;5066722;27;96926;-71
2023/02/25 05:40:59;;;;;;;0.98;0.30;;;;;;;7.68;63.77;99235.81;5065760;27;97667;-71
2023/02/25 05:43:25;;;;;;;0.65;0.40;;;;;;;7.66;63.61;99227.97;5072224;27;99142;-71
2023/02/25 05:45:53;;;;;;;0.43;0.43;;;;;;;7.63;63.45;99237.78;5064233;27;98764;-70
2023/02/25 05:48:21;;;;;;;0.93;0.60;;;;;;;7.57;63.55;99247.66;5072483;27;97205;-70
2023/02/25 05:50:49;;;;;;;0.95;0.50;;;;;;;7.15;64.64;99250.47;5064096;27;96938;-71
2023/02/25 05:53:16;;;;;;;1.50;0.60;;;;;;;7.43;64.71;99254.47;5069849;27;99046;-70
2023/02/25 05:55:43;;;;;;;3.95;0.70;;;;;;;7.53;63.99;99259.25;5062689;27;98921;-70
2023/02/25 05:58:09;;;;;;;0.57;0.40;;;;;;;7.55;63.79;99262.63;5064632;27;99461;-70
2023/02/25 06:00:36;;;;;;;6.30;2.05;;;;;;;7.74;63.55;99265.28;5068291;27;97278;-69
2023/02/25 06:03:03;;;;;;;1.08;0.50;;;;;;;7.85;63.10;99276.13;5067624;27;98882;-70
2023/02/25 06:05:31;;;;;;;2.50;1.80;;;;;;;7.99;62.37;99270.22;5065574;27;98751;-70
2023/02/25 06:07:58;;;;;;;0.55;0.40;;;;;;;7.56;63.55;99274.88;5070817;27;96848;-70
2023/02/25 06:10:25;;;;;;;2.00;0.70;;;;;;;7.55;64.04;99282.81;5070510;27;97410;-70
2023/02/25 06:12:52;;;;;;;0.50;0.50;;;;;;;7.45;64.39;99284.19;5068165;27;99452;-70
2023/02/25 06:15:19;;;;;;;1.55;0.60;;;;;;;6.94;65.11;99288.22;5069788;27;99556;-70
2023/02/25 06:17:45;;;;;;;1.08;0.50;;;;;;;7.41;64.98;99291.38;5072239;27;96847;-70
2023/02/25 06:20:15;;;;;;;0.88;0.57;;;;;;;7.44;64.71;99304.34;5064357;27;97349;-70
2023/02/25 06:22:43;;;;;;;1.23;0.57;;;;;;;6.87;66.75;99313.03;5075788;27;98987;-70
2023/02/25 06:25:09;;;;;;;2.08;0.50;;;;;;;6.96;66.51;99317.88;5070336;27;101585;-70
2023/02/25 06:27:36;;;;;;;1.95;0.93;;;;;;;7.42;65.18;99324.56;5075229;27;98002;-69
2023/02/25 06:30:02;;;;;;;2.15;0.85;;;;;;;7.55;64.42;99325.72;5064700;27;96864;-70
2023/02/25 06:32:29;;;;;;;0.82;0.60;;;;;;;6.95;65.20;99331.94;5074387;27;98837;-70
2023/02/25 06:34:55;;;;;;;0.95;0.60;;;;;;;6.42;68.26;99336.81;5065504;27;98660;-71
2023/02/25 06:37:22;;;;;;;1.80;0.75;;;;;;;6.67;67.84;99348.00;5068936;27;97965;-71
2023/02/25 06:39:49;;;;;;;2.42;0.85;;;;;;;6.81;66.65;99350.06;5067383;27;97679;-70
2023/02/25 06:42:16;;;;;;;0.50;0.40;;;;;;;7.01;65.97;99346.59;5064373;27;99365;-69
2023/02/25 06:44:42;;;;;;;1.38;0.60;;;;;;;7.14;65.58;99358.28;5064714;27;103288;-69
2023/02/25 06:47:09;;;;;;;1.10;0.65;;;;;;;7.09;65.96;99361.06;5069312;27;98781;-69
2023/02/25 06:49:35;;;;;;;2.72;1.00;;;;;;;7.39;64.71;99358.03;5067819;27;98677;-70
2023/02/25 06:52:02;;;;;;;0.70;0.43;;;;;;;7.00;65.24;99381.66;5067847;27;98414;-70
2023/02/25 06:54:28;;;;;;;1.30;0.65;;;;;;;6.83;65.84;99377.09;5064713;27;99072;-70
2023/02/25 06:56:56;;;;;;;0.73;0.63;;;;;;;7.09;65.94;99378.59;5066903;27;96809;-70
2023/02/25 06:59:22;;;;;;;1.70;0.70;;;;;;;6.99;66.15;99393.06;5066914;27;96902;-70
2023/02/25 07:01:49;;;;;;;1.08;0.68;;;;;;;7.50;64.86;99396.06;5066897;27;97527;-69
2023/02/25 07:04:17;;;;;;;1.02;0.40;;;;;;;7.75;63.12;99397.59;5065599;27;97739;-72
2023/02/25 07:06:44;;;;;;;1.75;0.50;;;;;;;7.17;65.20;99410.66;5066120;27;99502;-72
2023/02/25 07:09:10;;;;;;;0.55;0.40;;;;;;;6.33;68.00;99414.13;5068117;27;99150;-70
2023/02/25 07:11:37;;;;;;;1.50;0.75;;;;;;;7.02;65.91;99421.84;5072333;27;98729;-70
2023/02/25 07:14:06;;;;;;;0.50;0.50;;;;;;;6.50;66.78;99428.38;5064493;27;101580;-70
2023/02/25 07:16:33;;;;;;;1.27;0.57;;;;;;;7.01;66.45;99431.50;5068081;27;97824;-70
2023/02/25 07:19:01;;;;;;;2.53;1.38;;;;;;;6.82;66.38;99435.78;5065368;27;99622;-72
2023/02/25 07:21:29;;;;;;;2.15;0.57;;;;;;;7.16;64.99;99433.44;5068370;27;99279;-71
2023/02/25 07:23:56;;;;;;;0.73;0.70;;;;;;;7.36;64.17;99443.13;5067964;27;100987;-70
2023/02/25 07:26:27;;;;;;;0.75;0.45;;;;;;;7.39;64.47;99443.00;5072182;27;96833;-70
2023/02/25 07:28:54;;;;;;;1.05;0.65;;;;;;;8.07;62.41;99454.00;5073189;27;96746;-70
2023/02/25 07:31:22;;;;;;;2.35;0.60;;;;;;;8.02;62.08;99451.56;5064793;27;98556;-70
2023/02/25 07:33:49;;;;;;;2.67;0.82;;;;;;;8.18;61.11;99454.38;5063570;27;98852;-70
2023/02/25 07:36:16;;;;;;;1.30;0.75;;;;;;;8.25;61.39;99455.78;5063646;27;98684;-70
2023/02/25 07:38:43;;;;;;;1.75;0.85;;;;;;;8.48;60.54;99458.22;5065155;27;97827;-72
2023/02/25 07:41:11;;;;;;;0.70;0.52;;;;;;;8.49;59.50;99464.34;5067049;27;98199;-72
2023/02/25 07:43:44;;;;;;;3.70;1.05;;;;;;;8.40;60.20;99466.47;5064333;27;98822;-72
2023/02/25 07:46:12;;;;;;;3.25;1.70;;;;;;;8.34;60.53;99471.16;5065647;27;99744;-70
2023/02/25 07:48:40;;;;;;;1.88;0.60;;;;;;;8.27;60.02;99475.00;5068774;27;96847;-70
2023/02/25 07:51:07;;;;;;;1.63;0.85;;;;;;;8.30;60.33;99477.47;5066367;27;98819;-71
2023/02/25 07:53:34;;;;;;;1.35;0.50;;;;;;;7.91;61.47;99475.75;5067832;27;99095;-72
2023/02/25 07:56:00;;;;;;;0.30;0.30;;;;;;;7.79;61.36;99481.53;5068510;27;97130;-71
2023/02/25 07:58:27;;;;;;;2.15;0.50;;;;;;;8.19;61.38;99485.03;5067189;27;97000;-71
2023/02/25 08:00:54;;;;;;;0.30;0.30;;;;;;;7.80;61.41;99485.03;5069336;27;100742;-71
2023/02/25 08:03:21;;;;;;;0.85;0.30;;;;;;;7.86;61.36;99493.50;5068396;27;99370;-71
2023/02/25 08:05:52;;;;;;;2.17;0.85;;;;;;;8.15;60.52;99497.44;5069522;27;97026;-71
2023/02/25 08:08:19;;;;;;;0.98;0.40;;;;;;;8.05;60.79;99498.81;5059789;27;97381;-71
2023/02/25 08:10:46;;;;;;;2.28;0.50;;;;;;;8.45;60.18;99503.13;5066459;27;101127;-71
2023/02/25 08:13:13;;;;;;;1.55;0.73;;;;;;;8.61;59.52;99497.97;5073615;27;99137;-73
2023/02/25 08:15:41;;;;;;;0.70;0.60;;;;;;;8.68;58.62;99509.94;5062640;27;97467;-71
2023/02/25 08:18:07;;;;;;;1.05;0.47;;;;;;;8.61;58.60;99517.28;5068564;27;98362;-71
2023/02/25 08:20:34;;;;;;;1.27;0.68;;;;;;;8.57;58.36;99522.75;5066800;27;98367;-71
2023/02/25 08:23:02;;;;;;;0.30;0.28;;;;;;;8.61;57.90;99519.06;5068261;27;99170;-72
2023/02/25 08:25:28;;;;;;;1.45;0.50;;;;;;;8.33;58.48;99525.63;5070667;27;96624;-72
2023/02/25 08:27:55;;;;;;;0.98;0.40;;;;;;;8.33;58.93;99522.13;5070564;27;97593;-73
2023/02/25 08:30:21;;;;;;;0.95;0.50;;;;;;;8.41;58.32;99527.88;5071913;27;97567;-70
2023/02/25 08:32:48;;;;;;;0.50;0.30;;;;;;;8.61;57.69;99540.13;5065752;27;98795;-73
2023/02/25 08:35:16;;;;;;;1.38;0.68;;;;;;;8.86;57.78;99539.84;5067404;27;97133;-71
2023/02/25 08:37:44;;;;;;;1.02;0.40;;;;;;;8.81;58.08;99553.22;5068882;27;96987;-72
2023/02/25 08:40:14;;;;;;;1.10;0.52;;;;;;;8.50;58.40;99564.31;5068136;27;99344;-70
2023/02/25 08:42:40;;;;;;;0.98;0.50;;;;;;;8.54;58.00;99549.22;5074009;27;97767;-71
2023/02/25 08:45:07;;;;;;;0.68;0.50;;;;;;;8.58;58.25;99558.72;5068454;27;97145;-71
2023/02/25 08:47:34;;;;;;;0.50;0.40;;;;;;;8.25;58.84;99567.19;5070386;27;96935;-71
2023/02/25 08:50:00;;;;;;;2.50;0.90;;;;;;;8.34;58.56;99569.41;5068812;27;99223;-70
2023/02/25 08:52:32;;;;;;;2.03;1.17;;;;;;;7.93;60.20;99575.63;5067976;27;98165;-70
2023/02/25 08:54:59;;;;;;;0.65;0.20;;;;;;;8.11;59.45;99577.47;5069850;27;97397;-71
2023/02/25 08:57:27;;;;;;;0.55;0.35;;;;;;;7.77;60.36;99587.72;5068634;27;97284;-72
2023/02/25 08:59:54;;;;;;;0.20;0.20;;;;;;;7.92;59.96;99589.69;5066554;27;99303;-71
2023/02/25 09:02:20;;;;;;;0.95;0.60;;;;;;;8.24;59.95;99591.78;5067129;27;98091;-72
2023/02/25 09:04:47;;;;;;;1.05;0.50;;;;;;;8.17;58.97;99600.88;5060035;27;98599;-72
2023/02/25 09:07:15;;;;;;;0.90;0.60;;;;;;;7.77;59.71;99608.75;5064083;27;98314;-71
2023/02/25 09:09:44;;;;;;;1.00;0.50;;;;;;;7.97;59.44;99606.13;5065443;27;102305;-71
2023/02/25 09:12:10;;;;;;;1.15;0.50;;;;;;;8.10;59.22;99617.84;5065969;27;99536;-72
2023/02/25 09:14:38;;;;;;;0.65;0.40;;;;;;;7.99;58.57;99615.69;5067028;27;97320;-72
2023/02/25 09:17:06;;;;;;;1.83;0.90;;;;;;;8.27;57.97;99625.03;5062511;27;97202;-72
2023/02/25 09:19:33;;;;;;;1.83;0.63;;;;;;;8.29;58.21;99626.63;5062866;27;102235;-72
2023/02/25 09:21:59;;;;;;;1.45;0.70;;;;;;;8.27;58.52;99633.75;5062548;27;99156;-72
2023/02/25 09:24:28;;;;;;;4.80;1.70;;;;;;;8.17;57.26;99634.22;5062860;27;97749;-73
2023/02/25 09:26:55;;;;;;;1.70;1.33;;;;;;;8.29;56.98;99642.44;5071688;27;97249;-72
2023/02/25 09:29:21;;;;;;;1.52;0.95;;;;;;;8.45;56.86;99645.28;5067837;27;102583;-71
2023/02/25 09:31:49;;;;;;;3.38;1.05;;;;;;;8.80;55.77;99646.31;5066651;27;99040;-72
2023/02/25 09:34:17;;;;;;;1.77;0.57;;;;;;;8.43;56.46;99644.50;5061034;27;98749;-70
2023/02/25 09:36:43;;;;;;;0.43;0.30;;;;;;;8.66;55.61;99654.84;5063189;27;97243;-71
2023/02/25 09:39:10;;;;;;;0.98;0.32;;;;;;;8.73;55.01;99647.53;5065718;27;100376;-71
2023/02/25 09:41:44;;;;;;;0.40;0.30;;;;;;;8.93;54.64;99646.63;5064706;27;99301;-70
2023/02/25 09:44:13;;;;;;;2.90;0.50;;;;;;;9.03;54.99;99664.59;5062660;27;97305;-72
2023/02/25 09:46:49;;;;;;;3.53;0.32;;;;;;;8.96;54.82;99663.16;5060428;27;97446;-71
2023/02/25 09:49:23;;;;;;;0.93;0.40;;;;;;;8.58;56.86;99674.56;5064783;27;98812;-73
2023/02/25 09:51:56;;;;;;;2.05;1.10;;;;;;;8.97;55.79;99669.28;5065746;27;101202;-72
2023/02/25 09:54:29;;;;;;;2.33;0.25;;;;;;;8.69;54.97;99691.59;5070057;27;97775;-72
2023/02/25 09:56:59;;;;;;;0.65;0.45;;;;;;;8.61;56.12;99679.69;5068113;27;98890;-71
2023/02/25 09:59:30;;;;;;;0.77;0.40;;;;;;;8.38;56.56;99680.69;5068440;27;99162;-72
2023/02/25 10:02:00;;;;;;;0.20;0.10;;;;;;;8.75;54.43;99687.81;5066920;27;99935;-71
2023/02/25 10:04:37;;;;;;;1.10;0.70;;;;;;;9.07;54.60;99692.50;5067461;27;97597;-72
2023/02/25 10:07:19;;;;;;;1.25;0.75;;;;;;;9.24;53.69;99694.38;5068047;27;99367;-74
2023/02/25 10:09:52;;;;;;;0.88;0.50;;;;;;;9.04;54.58;99708.47;5070871;27;99302;-72
2023/02/25 10:12:32;;;;;;;1.40;0.60;;;;;;;8.45;57.53;99720.78;5070784;27;98807;-71
2023/02/25 10:15:15;;;;;;;2.97;0.45;;;;;;;7.72;58.31;99722.03;5064690;27;97533;-73
2023/02/25 10:17:52;;;;;;;1.88;0.60;;;;;;;7.38;60.18;99734.75;5061367;27;97317;-73
2023/02/25 10:20:40;;;;;;;0.80;0.68;;;;;;;7.86;58.96;99739.88;5067535;27;99560;-73
2023/02/25 10:23:17;;;;;;;1.90;0.65;;;;;;;7.60;59.60;99743.53;5068429;27;97507;-72
2023/02/25 10:25:54;;;;;;;1.55;0.40;;;;;;;7.41;60.27;99743.41;5062984;27;98869;-72
2023/02/25 10:28:23;;;;;;;1.38;0.80;;;;;;;7.55;60.16;99751.59;5069594;27;96875;-72
2023/02/25 10:30:57;;;;;;;1.20;0.68;;;;;;;7.73;59.39;99751.81;5068344;27;102917;-71
2023/02/25 10:33:25;;;;;;;0.68;0.50;;;;;;;8.01;58.70;99750.63;5064076;27;99093;-71
2023/02/25 10:35:57;;;;;;;2.72;1.92;;;;;;;8.07;58.38;99749.53;5065894;27;98084;-71
2023/02/25 10:38:23;;;;;;;2.60;1.83;;;;;;;8.30;58.33;99761.72;5066209;27;97194;-72
2023/02/25 10:40:53;;;;;;;1.38;1.20;;;;;;;8.83;57.24;99751.56;5066393;27;98193;-72
2023/02/25 10:43:23;;;;;;;3.47;1.35;;;;;;;8.95;56.43;99760.69;5068695;27;98658;-71
2023/02/25 10:45:56;;;;;;;1.50;1.00;;;;;;;9.36;55.40;99757.06;5071102;27;97611;-71
2023/02/25 10:48:24;;;;;;;0.82;0.57;;;;;;;9.24;55.14;99767.31;5072441;27;96837;-73
2023/02/25 10:51:10;;;;;;;0.50;0.50;;;;;;;9.42;54.24;99762.06;5073574;27;97954;-73
2023/02/25 10:53:38;;;;;;;0.85;0.77;;;;;;;9.57;54.14;99771.03;5067817;27;98636;-73
2023/02/25 10:56:05;;;;;;;3.35;0.90;;;;;;;9.85;53.15;99766.16;5065920;27;97987;-74
2023/02/25 10:58:43;;;;;;;1.20;0.63;;;;;;;10.05;52.14;99770.47;5068596;27;96851;-73
2023/02/25 11:01:16;;;;;;;0.88;0.70;;;;;;;10.22;51.60;99761.75;5070262;27;97748;-72
2023/02/25 11:03:54;;;;;;;2.47;1.55;;;;;;;10.07;52.28;99767.75;5069123;27;99588;-73
2023/02/25 11:06:25;;;;;;;2.30;0.80;;;;;;;10.00;52.81;99780.41;5066580;27;96881;-72
2023/02/25 11:08:53;;;;;;;1.40;0.70;;;;;;;9.55;53.80;99783.44;5069667;27;97075;-71
2023/02/25 11:11:22;;;;;;;1.20;0.40;;;;;;;9.16;55.08;99784.31;5068154;27;99378;-71
2023/02/25 11:14:04;;;;;;;0.50;0.40;;;;;;;8.91;55.28;99791.63;5067627;27;97802;-75
2023/02/25 11:16:33;;;;;;;0.85;0.70;;;;;;;8.23;57.94;99803.22;5066767;27;98042;-72
2023/02/25 11:19:05;;;;;;;1.00;0.82;;;;;;;8.74;57.26;99799.38;5069826;27;97789;-72
2023/02/25 11:21:36;;;;;;;1.38;0.85;;;;;;;9.13;57.00;99797.63;5069913;27;99028;-72
2023/02/25 11:24:06;;;;;;;1.95;0.73;;;;;;;9.40;55.59;99798.16;5066222;27;98684;-72
2023/02/25 11:26:35;;;;;;;2.25;0.90;;;;;;;8.98;57.02;99810.66;5071914;27;97078;-72
2023/02/25 11:29:06;;;;;;;2.60;1.00;;;;;;;9.39;55.66;99819.31;5060558;27;96875;-71
2023/02/25 11:31:36;;;;;;;1.58;0.68;;;;;;;9.27;55.93;99809.34;5065143;27;100120;-72
2023/02/25 11:34:06;;;;;;;2.90;0.68;;;;;;;9.58;55.35;99815.78;5063997;27;101553;-72
2023/02/25 11:36:37;;;;;;;1.50;1.08;;;;;;;9.59;55.18;99825.41;5065937;27;98649;-72
2023/02/25 11:39:15;;;;;;;2.85;1.42;;;;;;;9.59;54.51;99824.56;5063191;27;98813;-72
2023/02/25 11:41:43;;;;;;;0.98;0.85;;;;;;;9.60;55.03;99823.63;5063545;27;98881;-71
2023/02/25 11:44:29;;;;;;;3.10;1.20;;;;;;;9.85;53.72;99828.63;5067440;27;99968;-73
2023/02/25 11:47:01;;;;;;;0.98;0.65;;;;;;;9.82;53.69;99827.00;5065975;27;96747;-73
2023/02/25 11:49:58;;;;;;;1.45;0.47;;;;;;;9.83;52.10;99831.34;5065548;27;98427;-72
2023/02/25 11:52:35;;;;;;;0.40;0.30;;;;;;;9.56;52.68;99836.13;5065553;27;99233;-73